sensor_id;sensor_type;location;lat;lon;timestamp;P1;durP1;ratioP1;P2;durP2;ratioP2
5841;SDS011;2947;52.276;9.946;2023-02-24T00:01:55;20.03;;;3.20;;
5841;SDS011;2947;52.276;9.946;2023-02-24T00:04:32;19.43;;;2.97;;
5841;SDS011;2947;52.276;9.946;2023-02-24T00:07:03;21.57;;;2.27;;
5841;SDS011;2947;52.276;9.946;2023-02-24T00:09:30;17.20;;;2.73;;
5841;SDS011;2947;52.276;9.946;2023-02-24T00:12:01;17.50;;;3.20;;
5841;SDS011;2947;52.276;9.946;2023-02-24T00:14:35;24.33;;;3.63;;
5841;SDS011;2947;52.276;9.946;2023-02-24T00:17:02;35.57;;;4.73;;
5841;SDS011;2947;52.276;9.946;2023-02-24T00:19:31;20.13;;;2.87;;
5841;SDS011;2947;52.276;9.946;2023-02-24T00:21:58;26.07;;;3.53;;
5841;SDS011;2947;52.276;9.946;2023-02-24T00:24:28;19.47;;;2.90;;
5841;SDS011;2947;52.276;9.946;2023-02-24T00:26:56;20.47;;;3.73;;
5841;SDS011;2947;52.276;9.946;2023-02-24T00:29:24;15.43;;;2.90;;
5841;SDS011;2947;52.276;9.946;2023-02-24T00:31:53;24.90;;;4.60;;
5841;SDS011;2947;52.276;9.946;2023-02-24T00:34:24;21.43;;;3.90;;
5841;SDS011;2947;52.276;9.946;2023-02-24T00:36:51;17.33;;;3.30;;
5841;SDS011;2947;52.276;9.946;2023-02-24T00:39:17;23.23;;;2.87;;
5841;SDS011;2947;52.276;9.946;2023-02-24T00:41:43;11.83;;;2.60;;
5841;SDS011;2947;52.276;9.946;2023-02-24T00:44:12;19.93;;;3.47;;
5841;SDS011;2947;52.276;9.946;2023-02-24T00:46:43;21.07;;;2.60;;
5841;SDS011;2947;52.276;9.946;2023-02-24T00:49:12;15.10;;;3.00;;
5841;SDS011;2947;52.276;9.946;2023-02-24T00:51:41;15.50;;;3.03;;
5841;SDS011;2947;52.276;9.946;2023-02-24T00:54:13;23.00;;;3.53;;
5841;SDS011;2947;52.276;9.946;2023-02-24T00:56:41;21.63;;;3.20;;
5841;SDS011;2947;52.276;9.946;2023-02-24T00:59:09;25.20;;;2.53;;
5841;SDS011;2947;52.276;9.946;2023-02-24T01:01:37;16.70;;;2.87;;
5841;SDS011;2947;52.276;9.946;2023-02-24T01:04:03;23.50;;;2.90;;
5841;SDS011;2947;52.276;9.946;2023-02-24T01:06:34;19.70;;;2.77;;
5841;SDS011;2947;52.276;9.946;2023-02-24T01:09:02;26.80;;;3.60;;
5841;SDS011;2947;52.276;9.946;2023-02-24T01:11:32;18.80;;;4.03;;
5841;SDS011;2947;52.276;9.946;2023-02-24T01:14:19;26.80;;;3.67;;
5841;SDS011;2947;52.276;9.946;2023-02-24T01:16:48;8.83;;;2.90;;
5841;SDS011;2947;52.276;9.946;2023-02-24T01:19:18;14.23;;;2.57;;
5841;SDS011;2947;52.276;9.946;2023-02-24T01:21:46;27.33;;;3.43;;
5841;SDS011;2947;52.276;9.946;2023-02-24T01:24:18;24.20;;;2.70;;
5841;SDS011;2947;52.276;9.946;2023-02-24T01:26:52;15.33;;;2.23;;
5841;SDS011;2947;52.276;9.946;2023-02-24T01:29:19;21.90;;;4.40;;
5841;SDS011;2947;52.276;9.946;2023-02-24T01:31:47;17.07;;;2.60;;
5841;SDS011;2947;52.276;9.946;2023-02-24T01:34:14;25.50;;;2.23;;
5841;SDS011;2947;52.276;9.946;2023-02-24T01:36:40;14.60;;;2.40;;
5841;SDS011;2947;52.276;9.946;2023-02-24T01:39:08;19.27;;;3.03;;
5841;SDS011;2947;52.276;9.946;2023-02-24T01:41:39;14.90;;;2.90;;
5841;SDS011;2947;52.276;9.946;2023-02-24T01:46:41;10.00;;;1.83;;
5841;SDS011;2947;52.276;9.946;2023-02-24T01:49:14;17.77;;;2.43;;
5841;SDS011;2947;52.276;9.946;2023-02-24T01:52:05;25.40;;;2.83;;
5841;SDS011;2947;52.276;9.946;2023-02-24T01:57:19;21.07;;;2.67;;
5841;SDS011;2947;52.276;9.946;2023-02-24T01:59:48;19.20;;;3.20;;
5841;SDS011;2947;52.276;9.946;2023-02-24T02:02:18;14.80;;;2.33;;
5841;SDS011;2947;52.276;9.946;2023-02-24T02:05:00;18.47;;;2.90;;
5841;SDS011;2947;52.276;9.946;2023-02-24T02:07:30;28.03;;;3.10;;
5841;SDS011;2947;52.276;9.946;2023-02-24T02:09:56;18.87;;;2.77;;
5841;SDS011;2947;52.276;9.946;2023-02-24T02:12:30;23.30;;;3.00;;
5841;SDS011;2947;52.276;9.946;2023-02-24T02:15:00;15.10;;;3.00;;
5841;SDS011;2947;52.276;9.946;2023-02-24T02:17:33;15.83;;;2.20;;
5841;SDS011;2947;52.276;9.946;2023-02-24T02:34:55;18.43;;;2.60;;
5841;SDS011;2947;52.276;9.946;2023-02-24T02:40:22;14.47;;;2.80;;
5841;SDS011;2947;52.276;9.946;2023-02-24T02:43:06;18.53;;;2.53;;
5841;SDS011;2947;52.276;9.946;2023-02-24T02:45:56;21.30;;;2.70;;
5841;SDS011;2947;52.276;9.946;2023-02-24T02:48:49;24.27;;;2.37;;
5841;SDS011;2947;52.276;9.946;2023-02-24T02:51:28;18.37;;;2.73;;
5841;SDS011;2947;52.276;9.946;2023-02-24T02:54:11;18.33;;;3.37;;
5841;SDS011;2947;52.276;9.946;2023-02-24T02:57:01;18.00;;;2.40;;
5841;SDS011;2947;52.276;9.946;2023-02-24T02:59:50;18.10;;;3.20;;
5841;SDS011;2947;52.276;9.946;2023-02-24T03:02:25;12.50;;;2.27;;
5841;SDS011;2947;52.276;9.946;2023-02-24T03:04:57;16.97;;;2.27;;
5841;SDS011;2947;52.276;9.946;2023-02-24T03:07:27;12.63;;;2.30;;
5841;SDS011;2947;52.276;9.946;2023-02-24T03:10:00;18.47;;;2.53;;
5841;SDS011;2947;52.276;9.946;2023-02-24T03:12:34;15.63;;;2.50;;
5841;SDS011;2947;52.276;9.946;2023-02-24T03:15:05;18.40;;;2.50;;
5841;SDS011;2947;52.276;9.946;2023-02-24T03:17:36;27.40;;;2.50;;
5841;SDS011;2947;52.276;9.946;2023-02-24T03:22:44;23.67;;;2.60;;
5841;SDS011;2947;52.276;9.946;2023-02-24T03:25:25;11.73;;;3.00;;
5841;SDS011;2947;52.276;9.946;2023-02-24T03:28:05;13.43;;;2.00;;
5841;SDS011;2947;52.276;9.946;2023-02-24T03:30:45;20.13;;;3.13;;
5841;SDS011;2947;52.276;9.946;2023-02-24T03:33:23;13.47;;;3.73;;
5841;SDS011;2947;52.276;9.946;2023-02-24T03:36:01;14.23;;;3.03;;
5841;SDS011;2947;52.276;9.946;2023-02-24T03:38:28;12.90;;;2.50;;
5841;SDS011;2947;52.276;9.946;2023-02-24T03:40:56;6.50;;;1.87;;
5841;SDS011;2947;52.276;9.946;2023-02-24T03:43:24;17.53;;;2.50;;
5841;SDS011;2947;52.276;9.946;2023-02-24T03:45:56;18.50;;;2.97;;
5841;SDS011;2947;52.276;9.946;2023-02-24T03:48:24;21.20;;;3.17;;
5841;SDS011;2947;52.276;9.946;2023-02-24T03:50:52;8.50;;;1.87;;
5841;SDS011;2947;52.276;9.946;2023-02-24T03:56:43;16.63;;;3.53;;
5841;SDS011;2947;52.276;9.946;2023-02-24T04:02:12;8.80;;;1.70;;
5841;SDS011;2947;52.276;9.946;2023-02-24T04:07:46;15.47;;;1.67;;
5841;SDS011;2947;52.276;9.946;2023-02-24T04:13:22;11.03;;;2.03;;
5841;SDS011;2947;52.276;9.946;2023-02-24T04:18:52;16.03;;;2.43;;
5841;SDS011;2947;52.276;9.946;2023-02-24T04:21:22;11.20;;;1.33;;
5841;SDS011;2947;52.276;9.946;2023-02-24T04:23:52;7.87;;;1.80;;
5841;SDS011;2947;52.276;9.946;2023-02-24T04:26:18;8.00;;;1.30;;
5841;SDS011;2947;52.276;9.946;2023-02-24T04:28:45;9.60;;;1.50;;
5841;SDS011;2947;52.276;9.946;2023-02-24T04:31:14;17.40;;;2.13;;
5841;SDS011;2947;52.276;9.946;2023-02-24T04:33:42;12.33;;;2.40;;
5841;SDS011;2947;52.276;9.946;2023-02-24T04:36:18;12.17;;;1.67;;
5841;SDS011;2947;52.276;9.946;2023-02-24T04:38:46;11.30;;;1.53;;
5841;SDS011;2947;52.276;9.946;2023-02-24T04:41:13;15.50;;;2.80;;
5841;SDS011;2947;52.276;9.946;2023-02-24T04:43:45;10.57;;;2.30;;
5841;SDS011;2947;52.276;9.946;2023-02-24T04:46:13;10.60;;;2.47;;
5841;SDS011;2947;52.276;9.946;2023-02-24T04:48:38;11.50;;;1.63;;
5841;SDS011;2947;52.276;9.946;2023-02-24T04:51:04;7.63;;;1.80;;
5841;SDS011;2947;52.276;9.946;2023-02-24T04:53:30;14.70;;;1.70;;
5841;SDS011;2947;52.276;9.946;2023-02-24T04:55:56;11.40;;;1.90;;
5841;SDS011;2947;52.276;9.946;2023-02-24T04:58:32;11.67;;;1.80;;
5841;SDS011;2947;52.276;9.946;2023-02-24T05:00:57;10.03;;;2.10;;
5841;SDS011;2947;52.276;9.946;2023-02-24T05:03:23;4.90;;;1.27;;
5841;SDS011;2947;52.276;9.946;2023-02-24T05:05:54;10.33;;;1.87;;
5841;SDS011;2947;52.276;9.946;2023-02-24T05:08:24;8.83;;;1.50;;
5841;SDS011;2947;52.276;9.946;2023-02-24T05:10:52;7.00;;;1.53;;
5841;SDS011;2947;52.276;9.946;2023-02-24T05:13:23;11.93;;;1.73;;
5841;SDS011;2947;52.276;9.946;2023-02-24T05:16:02;4.80;;;1.30;;
5841;SDS011;2947;52.276;9.946;2023-02-24T05:18:33;5.20;;;0.90;;
5841;SDS011;2947;52.276;9.946;2023-02-24T05:21:03;8.10;;;1.70;;
5841;SDS011;2947;52.276;9.946;2023-02-24T05:23:58;11.40;;;1.50;;
5841;SDS011;2947;52.276;9.946;2023-02-24T05:26:30;3.93;;;1.07;;
5841;SDS011;2947;52.276;9.946;2023-02-24T05:29:00;12.03;;;1.47;;
5841;SDS011;2947;52.276;9.946;2023-02-24T05:31:28;6.23;;;1.10;;
5841;SDS011;2947;52.276;9.946;2023-02-24T05:33:56;5.13;;;1.20;;
5841;SDS011;2947;52.276;9.946;2023-02-24T05:36:26;7.73;;;1.70;;
5841;SDS011;2947;52.276;9.946;2023-02-24T05:38:56;5.50;;;1.20;;
5841;SDS011;2947;52.276;9.946;2023-02-24T05:41:23;18.23;;;1.30;;
5841;SDS011;2947;52.276;9.946;2023-02-24T05:43:56;8.20;;;1.33;;
5841;SDS011;2947;52.276;9.946;2023-02-24T05:46:27;8.83;;;1.70;;
5841;SDS011;2947;52.276;9.946;2023-02-24T05:49:02;7.77;;;1.20;;
5841;SDS011;2947;52.276;9.946;2023-02-24T05:51:33;8.67;;;1.50;;
5841;SDS011;2947;52.276;9.946;2023-02-24T05:54:07;4.43;;;1.20;;
5841;SDS011;2947;52.276;9.946;2023-02-24T05:56:37;8.40;;;1.33;;
5841;SDS011;2947;52.276;9.946;2023-02-24T05:59:08;10.50;;;1.13;;
5841;SDS011;2947;52.276;9.946;2023-02-24T06:01:37;15.03;;;1.97;;
5841;SDS011;2947;52.276;9.946;2023-02-24T06:04:05;10.87;;;1.50;;
5841;SDS011;2947;52.276;9.946;2023-02-24T06:06:34;5.40;;;1.40;;
5841;SDS011;2947;52.276;9.946;2023-02-24T06:09:02;10.23;;;1.10;;
5841;SDS011;2947;52.276;9.946;2023-02-24T06:11:35;4.73;;;1.23;;
5841;SDS011;2947;52.276;9.946;2023-02-24T06:14:02;2.53;;;0.90;;
5841;SDS011;2947;52.276;9.946;2023-02-24T06:16:31;6.50;;;1.00;;
5841;SDS011;2947;52.276;9.946;2023-02-24T06:19:02;4.40;;;1.40;;
5841;SDS011;2947;52.276;9.946;2023-02-24T06:21:29;4.10;;;1.13;;
5841;SDS011;2947;52.276;9.946;2023-02-24T06:23:55;3.23;;;1.00;;
5841;SDS011;2947;52.276;9.946;2023-02-24T06:26:23;4.00;;;0.80;;
5841;SDS011;2947;52.276;9.946;2023-02-24T06:28:54;8.40;;;1.00;;
5841;SDS011;2947;52.276;9.946;2023-02-24T06:31:22;12.43;;;1.77;;
5841;SDS011;2947;52.276;9.946;2023-02-24T06:33:48;7.73;;;1.43;;
5841;SDS011;2947;52.276;9.946;2023-02-24T06:36:14;5.80;;;1.40;;
5841;SDS011;2947;52.276;9.946;2023-02-24T06:38:40;5.43;;;1.00;;
5841;SDS011;2947;52.276;9.946;2023-02-24T06:41:06;3.87;;;1.20;;
5841;SDS011;2947;52.276;9.946;2023-02-24T06:43:36;3.80;;;1.17;;
5841;SDS011;2947;52.276;9.946;2023-02-24T06:46:13;4.43;;;1.20;;
5841;SDS011;2947;52.276;9.946;2023-02-24T06:48:40;16.87;;;2.20;;
5841;SDS011;2947;52.276;9.946;2023-02-24T06:51:07;6.37;;;1.30;;
5841;SDS011;2947;52.276;9.946;2023-02-24T06:53:37;7.27;;;1.50;;
5841;SDS011;2947;52.276;9.946;2023-02-24T06:56:07;2.60;;;0.83;;
5841;SDS011;2947;52.276;9.946;2023-02-24T06:58:42;4.33;;;1.10;;
5841;SDS011;2947;52.276;9.946;2023-02-24T07:01:11;4.30;;;1.00;;
5841;SDS011;2947;52.276;9.946;2023-02-24T07:03:43;6.57;;;1.10;;
5841;SDS011;2947;52.276;9.946;2023-02-24T07:06:27;9.60;;;1.17;;
5841;SDS011;2947;52.276;9.946;2023-02-24T07:08:58;4.50;;;1.37;;
5841;SDS011;2947;52.276;9.946;2023-02-24T07:11:29;7.03;;;2.63;;
5841;SDS011;2947;52.276;9.946;2023-02-24T07:13:56;10.67;;;1.70;;
5841;SDS011;2947;52.276;9.946;2023-02-24T07:16:22;8.33;;;1.50;;
5841;SDS011;2947;52.276;9.946;2023-02-24T07:18:53;11.83;;;1.50;;
5841;SDS011;2947;52.276;9.946;2023-02-24T07:21:21;10.70;;;1.50;;
5841;SDS011;2947;52.276;9.946;2023-02-24T07:23:49;9.03;;;1.53;;
5841;SDS011;2947;52.276;9.946;2023-02-24T07:26:21;19.03;;;1.63;;
5841;SDS011;2947;52.276;9.946;2023-02-24T07:28:50;14.80;;;1.93;;
5841;SDS011;2947;52.276;9.946;2023-02-24T07:31:19;3.83;;;1.40;;
5841;SDS011;2947;52.276;9.946;2023-02-24T07:33:48;7.13;;;1.30;;
5841;SDS011;2947;52.276;9.946;2023-02-24T07:36:17;3.90;;;1.00;;
5841;SDS011;2947;52.276;9.946;2023-02-24T07:38:47;6.87;;;1.50;;
5841;SDS011;2947;52.276;9.946;2023-02-24T07:41:18;2.47;;;0.70;;
5841;SDS011;2947;52.276;9.946;2023-02-24T07:43:47;4.83;;;1.37;;
5841;SDS011;2947;52.276;9.946;2023-02-24T07:46:24;10.20;;;1.30;;
5841;SDS011;2947;52.276;9.946;2023-02-24T07:48:52;6.00;;;1.40;;
5841;SDS011;2947;52.276;9.946;2023-02-24T07:51:21;7.00;;;1.30;;
5841;SDS011;2947;52.276;9.946;2023-02-24T07:53:50;7.13;;;1.40;;
5841;SDS011;2947;52.276;9.946;2023-02-24T07:56:23;9.07;;;1.20;;
5841;SDS011;2947;52.276;9.946;2023-02-24T07:59:02;7.03;;;0.87;;
5841;SDS011;2947;52.276;9.946;2023-02-24T08:01:35;5.40;;;0.90;;
5841;SDS011;2947;52.276;9.946;2023-02-24T08:04:08;6.30;;;1.80;;
5841;SDS011;2947;52.276;9.946;2023-02-24T08:06:37;3.70;;;1.00;;
5841;SDS011;2947;52.276;9.946;2023-02-24T08:09:09;6.13;;;1.13;;
5841;SDS011;2947;52.276;9.946;2023-02-24T08:14:16;5.33;;;1.37;;
5841;SDS011;2947;52.276;9.946;2023-02-24T08:17:00;8.43;;;1.27;;
5841;SDS011;2947;52.276;9.946;2023-02-24T08:19:30;7.90;;;1.20;;
5841;SDS011;2947;52.276;9.946;2023-02-24T08:22:00;5.13;;;1.40;;
5841;SDS011;2947;52.276;9.946;2023-02-24T08:24:47;3.93;;;1.20;;
5841;SDS011;2947;52.276;9.946;2023-02-24T08:27:25;6.80;;;1.47;;
5841;SDS011;2947;52.276;9.946;2023-02-24T08:29:54;4.50;;;1.03;;
5841;SDS011;2947;52.276;9.946;2023-02-24T08:32:30;10.63;;;1.07;;
5841;SDS011;2947;52.276;9.946;2023-02-24T08:35:09;14.07;;;1.47;;
5841;SDS011;2947;52.276;9.946;2023-02-24T08:37:41;3.90;;;1.37;;
5841;SDS011;2947;52.276;9.946;2023-02-24T08:40:21;4.90;;;0.97;;
5841;SDS011;2947;52.276;9.946;2023-02-24T08:48:15;9.80;;;1.57;;
5841;SDS011;2947;52.276;9.946;2023-02-24T08:51:23;8.40;;;1.37;;
5841;SDS011;2947;52.276;9.946;2023-02-24T08:53:53;6.50;;;1.00;;
5841;SDS011;2947;52.276;9.946;2023-02-24T08:56:24;9.90;;;1.77;;
5841;SDS011;2947;52.276;9.946;2023-02-24T08:58:57;5.13;;;1.50;;
5841;SDS011;2947;52.276;9.946;2023-02-24T09:01:29;4.17;;;1.20;;
5841;SDS011;2947;52.276;9.946;2023-02-24T09:04:10;9.10;;;1.13;;
5841;SDS011;2947;52.276;9.946;2023-02-24T09:06:47;16.53;;;1.40;;
5841;SDS011;2947;52.276;9.946;2023-02-24T09:09:21;8.17;;;1.67;;
5841;SDS011;2947;52.276;9.946;2023-02-24T09:11:56;4.27;;;1.50;;
5841;SDS011;2947;52.276;9.946;2023-02-24T09:14:24;6.40;;;1.23;;
5841;SDS011;2947;52.276;9.946;2023-02-24T09:17:00;6.43;;;1.10;;
5841;SDS011;2947;52.276;9.946;2023-02-24T09:22:15;3.63;;;1.33;;
5841;SDS011;2947;52.276;9.946;2023-02-24T09:25:00;5.50;;;1.53;;
5841;SDS011;2947;52.276;9.946;2023-02-24T09:30:41;8.47;;;1.60;;
5841;SDS011;2947;52.276;9.946;2023-02-24T09:33:21;7.30;;;1.83;;
5841;SDS011;2947;52.276;9.946;2023-02-24T09:36:03;4.63;;;2.40;;
5841;SDS011;2947;52.276;9.946;2023-02-24T09:38:37;6.00;;;1.43;;
5841;SDS011;2947;52.276;9.946;2023-02-24T09:41:37;8.03;;;1.80;;
5841;SDS011;2947;52.276;9.946;2023-02-24T09:44:23;5.23;;;1.40;;
5841;SDS011;2947;52.276;9.946;2023-02-24T09:49:55;7.83;;;1.77;;
5841;SDS011;2947;52.276;9.946;2023-02-24T09:52:28;9.87;;;2.20;;
5841;SDS011;2947;52.276;9.946;2023-02-24T09:55:15;10.97;;;2.40;;
5841;SDS011;2947;52.276;9.946;2023-02-24T09:57:50;9.80;;;2.03;;
5841;SDS011;2947;52.276;9.946;2023-02-24T10:03:55;13.23;;;2.73;;
5841;SDS011;2947;52.276;9.946;2023-02-24T10:06:40;8.63;;;1.80;;
5841;SDS011;2947;52.276;9.946;2023-02-24T10:11:52;6.30;;;1.63;;
5841;SDS011;2947;52.276;9.946;2023-02-24T10:17:49;9.90;;;2.67;;
5841;SDS011;2947;52.276;9.946;2023-02-24T10:20:20;4.20;;;1.43;;
5841;SDS011;2947;52.276;9.946;2023-02-24T10:23:04;4.83;;;1.93;;
5841;SDS011;2947;52.276;9.946;2023-02-24T10:25:48;4.60;;;1.83;;
5841;SDS011;2947;52.276;9.946;2023-02-24T10:28:24;7.10;;;1.53;;
5841;SDS011;2947;52.276;9.946;2023-02-24T10:31:10;12.10;;;1.80;;
5841;SDS011;2947;52.276;9.946;2023-02-24T10:33:54;5.70;;;2.27;;
5841;SDS011;2947;52.276;9.946;2023-02-24T10:36:30;7.20;;;1.50;;
5841;SDS011;2947;52.276;9.946;2023-02-24T10:39:01;8.50;;;1.63;;
5841;SDS011;2947;52.276;9.946;2023-02-24T10:41:43;9.47;;;2.17;;
5841;SDS011;2947;52.276;9.946;2023-02-24T10:44:21;19.10;;;2.10;;
5841;SDS011;2947;52.276;9.946;2023-02-24T10:47:00;10.77;;;1.57;;
5841;SDS011;2947;52.276;9.946;2023-02-24T10:49:38;6.53;;;1.90;;
5841;SDS011;2947;52.276;9.946;2023-02-24T10:52:20;8.97;;;1.83;;
5841;SDS011;2947;52.276;9.946;2023-02-24T10:55:09;11.70;;;2.00;;
5841;SDS011;2947;52.276;9.946;2023-02-24T10:58:05;4.63;;;1.50;;
5841;SDS011;2947;52.276;9.946;2023-02-24T11:00:38;6.43;;;2.10;;
5841;SDS011;2947;52.276;9.946;2023-02-24T11:03:45;6.63;;;1.80;;
5841;SDS011;2947;52.276;9.946;2023-02-24T11:06:27;10.83;;;2.27;;
5841;SDS011;2947;52.276;9.946;2023-02-24T11:09:04;12.13;;;2.40;;
5841;SDS011;2947;52.276;9.946;2023-02-24T11:11:50;8.67;;;3.17;;
5841;SDS011;2947;52.276;9.946;2023-02-24T11:14:36;9.00;;;2.17;;
5841;SDS011;2947;52.276;9.946;2023-02-24T11:17:44;7.37;;;2.10;;
5841;SDS011;2947;52.276;9.946;2023-02-24T11:20:40;5.77;;;1.97;;
5841;SDS011;2947;52.276;9.946;2023-02-24T11:23:12;11.30;;;2.13;;
5841;SDS011;2947;52.276;9.946;2023-02-24T11:25:47;13.60;;;2.30;;
5841;SDS011;2947;52.276;9.946;2023-02-24T11:28:24;12.47;;;2.67;;
5841;SDS011;2947;52.276;9.946;2023-02-24T11:34:41;4.47;;;1.70;;
5841;SDS011;2947;52.276;9.946;2023-02-24T11:42:47;3.80;;;1.60;;
5841;SDS011;2947;52.276;9.946;2023-02-24T11:50:50;5.80;;;1.60;;
5841;SDS011;2947;52.276;9.946;2023-02-24T11:53:42;3.53;;;1.77;;
5841;SDS011;2947;52.276;9.946;2023-02-24T11:58:59;6.50;;;1.57;;
5841;SDS011;2947;52.276;9.946;2023-02-24T12:07:43;6.10;;;1.80;;
5841;SDS011;2947;52.276;9.946;2023-02-24T12:18:32;4.73;;;2.73;;
5841;SDS011;2947;52.276;9.946;2023-02-24T12:21:11;6.13;;;1.77;;
5841;SDS011;2947;52.276;9.946;2023-02-24T12:23:49;4.33;;;2.23;;
5841;SDS011;2947;52.276;9.946;2023-02-24T12:26:35;4.93;;;1.97;;
5841;SDS011;2947;52.276;9.946;2023-02-24T12:38:43;4.73;;;1.87;;
5841;SDS011;2947;52.276;9.946;2023-02-24T12:41:38;6.90;;;2.67;;
5841;SDS011;2947;52.276;9.946;2023-02-24T12:47:13;4.30;;;2.20;;
5841;SDS011;2947;52.276;9.946;2023-02-24T12:50:09;4.33;;;2.50;;
5841;SDS011;2947;52.276;9.946;2023-02-24T12:58:26;5.87;;;2.53;;
5841;SDS011;2947;52.276;9.946;2023-02-24T13:04:11;5.60;;;3.03;;
5841;SDS011;2947;52.276;9.946;2023-02-24T13:06:52;6.37;;;2.87;;
5841;SDS011;2947;52.276;9.946;2023-02-24T13:14:59;4.43;;;3.20;;
5841;SDS011;2947;52.276;9.946;2023-02-24T13:17:29;5.53;;;3.73;;
5841;SDS011;2947;52.276;9.946;2023-02-24T13:19:54;4.70;;;3.60;;
5841;SDS011;2947;52.276;9.946;2023-02-24T13:27:22;4.77;;;3.73;;
5841;SDS011;2947;52.276;9.946;2023-02-24T13:32:45;9.57;;;4.30;;
5841;SDS011;2947;52.276;9.946;2023-02-24T13:37:47;5.90;;;4.33;;
5841;SDS011;2947;52.276;9.946;2023-02-24T13:42:42;5.90;;;3.93;;
5841;SDS011;2947;52.276;9.946;2023-02-24T13:45:35;5.47;;;3.70;;
5841;SDS011;2947;52.276;9.946;2023-02-24T13:48:26;4.00;;;3.50;;
5841;SDS011;2947;52.276;9.946;2023-02-24T13:54:43;4.77;;;3.57;;
5841;SDS011;2947;52.276;9.946;2023-02-24T14:02:52;7.00;;;4.60;;
5841;SDS011;2947;52.276;9.946;2023-02-24T14:07:58;8.40;;;4.20;;
5841;SDS011;2947;52.276;9.946;2023-02-24T14:10:26;6.10;;;4.80;;
5841;SDS011;2947;52.276;9.946;2023-02-24T14:13:36;6.10;;;4.63;;
5841;SDS011;2947;52.276;9.946;2023-02-24T14:15:53;6.10;;;4.80;;
5841;SDS011;2947;52.276;9.946;2023-02-24T14:18:21;6.40;;;4.60;;
5841;SDS011;2947;52.276;9.946;2023-02-24T14:20:52;5.43;;;4.17;;
5841;SDS011;2947;52.276;9.946;2023-02-24T14:23:24;5.27;;;4.50;;
5841;SDS011;2947;52.276;9.946;2023-02-24T14:25:54;7.67;;;4.60;;
5841;SDS011;2947;52.276;9.946;2023-02-24T14:28:33;9.73;;;4.60;;
5841;SDS011;2947;52.276;9.946;2023-02-24T14:31:02;12.63;;;5.47;;
5841;SDS011;2947;52.276;9.946;2023-02-24T14:33:36;8.80;;;6.00;;
5841;SDS011;2947;52.276;9.946;2023-02-24T14:36:05;5.50;;;4.47;;
5841;SDS011;2947;52.276;9.946;2023-02-24T14:38:44;8.17;;;4.93;;
5841;SDS011;2947;52.276;9.946;2023-02-24T14:41:18;6.70;;;5.20;;
5841;SDS011;2947;52.276;9.946;2023-02-24T14:43:47;7.03;;;5.00;;
5841;SDS011;2947;52.276;9.946;2023-02-24T14:46:13;7.57;;;5.47;;
5841;SDS011;2947;52.276;9.946;2023-02-24T14:48:41;10.43;;;5.40;;
5841;SDS011;2947;52.276;9.946;2023-02-24T14:51:27;8.67;;;5.33;;
5841;SDS011;2947;52.276;9.946;2023-02-24T14:54:00;8.83;;;6.50;;
5841;SDS011;2947;52.276;9.946;2023-02-24T14:56:32;26.77;;;10.40;;
5841;SDS011;2947;52.276;9.946;2023-02-24T15:01:52;17.10;;;8.87;;
5841;SDS011;2947;52.276;9.946;2023-02-24T15:06:52;24.43;;;10.97;;
5841;SDS011;2947;52.276;9.946;2023-02-24T15:09:18;15.63;;;7.73;;
5841;SDS011;2947;52.276;9.946;2023-02-24T15:11:48;10.23;;;7.17;;
5841;SDS011;2947;52.276;9.946;2023-02-24T15:14:27;9.70;;;7.20;;
5841;SDS011;2947;52.276;9.946;2023-02-24T15:16:55;11.37;;;6.30;;
5841;SDS011;2947;52.276;9.946;2023-02-24T15:21:56;10.50;;;7.03;;
5841;SDS011;2947;52.276;9.946;2023-02-24T15:24:26;15.53;;;7.07;;
5841;SDS011;2947;52.276;9.946;2023-02-24T15:26:57;11.20;;;7.20;;
5841;SDS011;2947;52.276;9.946;2023-02-24T15:29:25;11.23;;;8.10;;
5841;SDS011;2947;52.276;9.946;2023-02-24T15:31:56;12.73;;;6.70;;
5841;SDS011;2947;52.276;9.946;2023-02-24T15:34:30;10.37;;;6.47;;
5841;SDS011;2947;52.276;9.946;2023-02-24T15:37:00;8.97;;;5.87;;
5841;SDS011;2947;52.276;9.946;2023-02-24T15:39:36;26.20;;;11.13;;
5841;SDS011;2947;52.276;9.946;2023-02-24T15:44:59;18.63;;;8.30;;
5841;SDS011;2947;52.276;9.946;2023-02-24T15:47:40;17.53;;;8.07;;
5841;SDS011;2947;52.276;9.946;2023-02-24T15:50:08;17.67;;;6.97;;
5841;SDS011;2947;52.276;9.946;2023-02-24T15:52:36;12.60;;;7.20;;
5841;SDS011;2947;52.276;9.946;2023-02-24T15:55:02;13.37;;;6.63;;
5841;SDS011;2947;52.276;9.946;2023-02-24T15:57:29;12.53;;;7.80;;
5841;SDS011;2947;52.276;9.946;2023-02-24T15:59:56;8.27;;;6.20;;
5841;SDS011;2947;52.276;9.946;2023-02-24T16:02:23;17.67;;;6.53;;
5841;SDS011;2947;52.276;9.946;2023-02-24T16:04:49;16.17;;;7.20;;
5841;SDS011;2947;52.276;9.946;2023-02-24T16:07:17;12.37;;;6.97;;
5841;SDS011;2947;52.276;9.946;2023-02-24T16:09:51;13.17;;;7.70;;
5841;SDS011;2947;52.276;9.946;2023-02-24T16:12:19;13.47;;;7.67;;
5841;SDS011;2947;52.276;9.946;2023-02-24T16:14:48;17.13;;;7.07;;
5841;SDS011;2947;52.276;9.946;2023-02-24T16:17:29;14.40;;;7.73;;
5841;SDS011;2947;52.276;9.946;2023-02-24T16:20:04;14.77;;;7.50;;
5841;SDS011;2947;52.276;9.946;2023-02-24T16:22:44;14.83;;;7.17;;
5841;SDS011;2947;52.276;9.946;2023-02-24T16:25:12;10.13;;;6.87;;
5841;SDS011;2947;52.276;9.946;2023-02-24T16:27:40;15.50;;;6.70;;
5841;SDS011;2947;52.276;9.946;2023-02-24T16:30:06;9.90;;;6.63;;
5841;SDS011;2947;52.276;9.946;2023-02-24T16:32:39;15.03;;;7.40;;
5841;SDS011;2947;52.276;9.946;2023-02-24T16:35:05;19.30;;;9.07;;
5841;SDS011;2947;52.276;9.946;2023-02-24T16:37:35;16.10;;;8.70;;
5841;SDS011;2947;52.276;9.946;2023-02-24T16:40:01;10.10;;;7.20;;
5841;SDS011;2947;52.276;9.946;2023-02-24T16:42:34;10.87;;;6.90;;
5841;SDS011;2947;52.276;9.946;2023-02-24T16:45:00;12.83;;;7.03;;
5841;SDS011;2947;52.276;9.946;2023-02-24T16:47:26;12.73;;;7.00;;
5841;SDS011;2947;52.276;9.946;2023-02-24T16:49:52;13.23;;;6.60;;
5841;SDS011;2947;52.276;9.946;2023-02-24T16:52:21;11.00;;;6.50;;
5841;SDS011;2947;52.276;9.946;2023-02-24T16:54:48;16.27;;;8.17;;
5841;SDS011;2947;52.276;9.946;2023-02-24T16:57:14;14.60;;;7.20;;
5841;SDS011;2947;52.276;9.946;2023-02-24T16:59:41;12.17;;;5.60;;
5841;SDS011;2947;52.276;9.946;2023-02-24T17:02:09;8.83;;;5.57;;
5841;SDS011;2947;52.276;9.946;2023-02-24T17:04:49;10.00;;;5.30;;
5841;SDS011;2947;52.276;9.946;2023-02-24T17:07:14;9.67;;;5.67;;
5841;SDS011;2947;52.276;9.946;2023-02-24T17:09:42;8.20;;;6.20;;
5841;SDS011;2947;52.276;9.946;2023-02-24T17:12:09;7.67;;;4.90;;
5841;SDS011;2947;52.276;9.946;2023-02-24T17:14:37;7.40;;;5.10;;
5841;SDS011;2947;52.276;9.946;2023-02-24T17:17:03;10.17;;;5.90;;
5841;SDS011;2947;52.276;9.946;2023-02-24T17:19:28;11.33;;;4.93;;
5841;SDS011;2947;52.276;9.946;2023-02-24T17:21:54;11.30;;;5.90;;
5841;SDS011;2947;52.276;9.946;2023-02-24T17:24:20;11.00;;;6.33;;
5841;SDS011;2947;52.276;9.946;2023-02-24T17:26:46;14.97;;;6.37;;
5841;SDS011;2947;52.276;9.946;2023-02-24T17:29:12;10.00;;;6.60;;
5841;SDS011;2947;52.276;9.946;2023-02-24T17:31:38;10.67;;;5.93;;
5841;SDS011;2947;52.276;9.946;2023-02-24T17:34:04;12.20;;;6.17;;
5841;SDS011;2947;52.276;9.946;2023-02-24T17:36:31;10.40;;;5.07;;
5841;SDS011;2947;52.276;9.946;2023-02-24T17:38:57;7.70;;;5.80;;
5841;SDS011;2947;52.276;9.946;2023-02-24T17:41:23;14.93;;;6.00;;
5841;SDS011;2947;52.276;9.946;2023-02-24T17:43:50;10.37;;;6.03;;
5841;SDS011;2947;52.276;9.946;2023-02-24T17:46:16;10.73;;;6.13;;
5841;SDS011;2947;52.276;9.946;2023-02-24T17:48:43;15.00;;;5.93;;
5841;SDS011;2947;52.276;9.946;2023-02-24T17:51:14;8.70;;;6.00;;
5841;SDS011;2947;52.276;9.946;2023-02-24T17:53:42;9.50;;;5.90;;
5841;SDS011;2947;52.276;9.946;2023-02-24T17:56:08;12.90;;;6.17;;
5841;SDS011;2947;52.276;9.946;2023-02-24T17:58:34;13.33;;;6.23;;
5841;SDS011;2947;52.276;9.946;2023-02-24T18:01:01;9.27;;;5.67;;
5841;SDS011;2947;52.276;9.946;2023-02-24T18:03:29;8.87;;;5.83;;
5841;SDS011;2947;52.276;9.946;2023-02-24T18:06:00;8.20;;;5.97;;
5841;SDS011;2947;52.276;9.946;2023-02-24T18:08:30;10.10;;;5.20;;
5841;SDS011;2947;52.276;9.946;2023-02-24T18:10:57;12.80;;;5.90;;
5841;SDS011;2947;52.276;9.946;2023-02-24T18:13:23;17.33;;;5.83;;
5841;SDS011;2947;52.276;9.946;2023-02-24T18:15:50;16.13;;;6.93;;
5841;SDS011;2947;52.276;9.946;2023-02-24T18:18:16;11.90;;;5.20;;
5841;SDS011;2947;52.276;9.946;2023-02-24T18:20:42;7.60;;;4.90;;
5841;SDS011;2947;52.276;9.946;2023-02-24T18:23:09;14.23;;;6.20;;